Time;durP1;ratioP1;P1;durP2;ratioP2;P2;SDS_P1;SDS_P2;PMS_P1;PMS_P2;Temp;Humidity;BMP_temperature;BMP_pressure;BME280_temperature;BME280_humidity;BME280_pressure;Samples;Min_cycle;Max_cycle;Signal;HPM_P1;HPM_P2
2022/10/03 00:01:50;;;;;;;6.30;2.30;;;19.80;96.70;;;;;;5085407;28;20048;-74
2022/10/03 00:04:31;;;;;;;5.80;2.05;;;19.80;96.70;;;;;;5083580;28;20054;-73
2022/10/03 00:07:10;;;;;;;5.70;1.75;;;19.90;96.70;;;;;;5084807;28;20841;-73
2022/10/03 00:10:01;;;;;;;9.35;2.53;;;19.90;96.70;;;;;;5083597;28;20075;-73
2022/10/03 00:13:00;;;;;;;6.47;2.45;;;19.90;96.70;;;;;;5083278;28;20048;-74
2022/10/03 00:15:34;;;;;;;7.60;2.20;;;19.80;96.70;;;;;;5083741;28;20062;-73
2022/10/03 00:18:17;;;;;;;8.52;2.33;;;19.80;96.70;;;;;;5067493;28;20044;-73
2022/10/03 00:21:01;;;;;;;4.97;1.90;;;19.80;96.70;;;;;;5083563;28;20054;-73
2022/10/03 00:23:42;;;;;;;5.38;1.75;;;19.70;96.70;;;;;;5080765;28;20048;-73
2022/10/03 00:26:31;;;;;;;6.80;2.10;;;19.80;96.70;;;;;;5086160;28;20040;-74
2022/10/03 00:29:23;;;;;;;9.82;2.78;;;19.80;96.70;;;;;;5085324;28;20043;-74
2022/10/03 00:32:01;;;;;;;8.55;2.33;;;19.70;96.70;;;;;;5083074;28;20054;-74
2022/10/03 00:34:39;;;;;;;11.82;2.92;;;19.70;96.70;;;;;;5083769;28;20459;-73
2022/10/03 00:37:20;;;;;;;6.07;2.15;;;19.70;96.70;;;;;;5082465;28;20066;-74
2022/10/03 00:40:27;;;;;;;8.23;2.30;;;19.80;96.70;;;;;;5080055;28;20094;-73
2022/10/03 00:43:30;;;;;;;6.68;2.08;;;19.80;96.70;;;;;;5083724;28;20143;-73
2022/10/03 00:46:40;;;;;;;7.15;1.95;;;19.80;96.70;;;;;;5040668;28;20390;-74
2022/10/03 00:49:36;;;;;;;7.55;1.85;;;19.80;96.70;;;;;;5081678;28;20044;-74
2022/10/03 00:52:34;;;;;;;3.40;1.38;;;19.80;96.70;;;;;;5083816;28;20052;-73
2022/10/03 00:55:14;;;;;;;5.57;2.03;;;19.80;96.70;;;;;;5084034;28;20056;-73
2022/10/03 00:58:18;;;;;;;8.77;2.05;;;19.80;96.70;;;;;;5084952;28;20436;-73
2022/10/03 01:00:50;;;;;;;8.18;1.55;;;19.80;96.70;;;;;;5085641;28;20052;-74
2022/10/03 01:03:33;;;;;;;6.95;1.73;;;19.80;96.70;;;;;;5084982;28;20098;-73
2022/10/03 01:06:15;;;;;;;4.85;1.58;;;19.80;96.70;;;;;;5080893;28;20037;-73
2022/10/03 01:09:02;;;;;;;5.40;1.40;;;19.70;96.70;;;;;;5074422;28;20040;-73
2022/10/03 01:11:45;;;;;;;6.97;1.45;;;19.70;96.70;;;;;;5083313;28;20121;-74
2022/10/03 01:14:32;;;;;;;3.90;1.73;;;19.70;96.70;;;;;;5081483;28;20047;-74
2022/10/03 01:17:10;;;;;;;4.18;1.63;;;19.70;96.70;;;;;;5078383;28;20461;-74
2022/10/03 01:20:06;;;;;;;3.92;1.38;;;19.70;96.70;;;;;;5078894;28;20135;-73
2022/10/03 01:22:53;;;;;;;5.50;1.67;;;19.70;96.70;;;;;;5084112;28;20063;-73
2022/10/03 01:25:36;;;;;;;4.40;1.30;;;19.70;96.70;;;;;;5084950;28;20041;-73
2022/10/03 01:31:33;;;;;;;4.93;1.58;;;19.70;96.70;;;;;;5083005;28;20040;-73
2022/10/03 01:34:10;;;;;;;10.45;2.00;;;19.70;96.70;;;;;;5080554;28;20122;-73
2022/10/03 01:36:51;;;;;;;5.18;1.70;;;19.70;96.70;;;;;;5080232;28;20105;-73
2022/10/03 01:39:25;;;;;;;5.85;1.80;;;19.70;96.70;;;;;;5081119;28;20148;-73
2022/10/03 01:42:00;;;;;;;6.90;1.35;;;19.70;96.70;;;;;;5080218;28;20067;-73
2022/10/03 01:44:39;;;;;;;6.07;2.00;;;19.60;96.70;;;;;;5092542;27;20056;-73
2022/10/03 01:47:19;;;;;;;10.98;2.30;;;19.60;96.70;;;;;;5083189;28;20803;-73
2022/10/03 01:49:55;;;;;;;5.43;1.67;;;19.60;96.70;;;;;;5081679;28;20105;-74
2022/10/03 01:52:32;;;;;;;6.15;1.35;;;19.60;96.70;;;;;;5081127;28;20049;-74
2022/10/03 01:55:07;;;;;;;9.38;2.00;;;19.60;96.70;;;;;;5066082;28;20052;-74
2022/10/03 01:57:41;;;;;;;6.53;1.63;;;19.60;96.70;;;;;;5081275;28;20036;-74
2022/10/03 02:00:14;;;;;;;6.75;1.75;;;19.70;96.70;;;;;;5080667;28;20128;-74
2022/10/03 02:02:46;;;;;;;5.25;1.65;;;19.60;96.70;;;;;;5084659;28;20448;-74
2022/10/03 02:05:21;;;;;;;6.82;1.95;;;19.60;96.70;;;;;;5081813;28;20489;-73
2022/10/03 02:07:55;;;;;;;8.48;1.65;;;19.50;96.70;;;;;;5080501;28;20040;-73
2022/10/03 02:10:34;;;;;;;5.45;1.23;;;19.50;96.70;;;;;;5075095;28;20059;-73
2022/10/03 02:13:11;;;;;;;8.73;2.05;;;19.60;96.70;;;;;;5080586;28;20509;-73
2022/10/03 02:15:56;;;;;;;8.55;1.20;;;19.60;96.70;;;;;;5079410;28;20503;-74
2022/10/03 02:18:37;;;;;;;5.72;1.40;;;19.60;96.70;;;;;;5079547;28;20093;-73
2022/10/03 02:21:13;;;;;;;5.97;1.52;;;19.60;96.70;;;;;;5083678;28;20048;-73
2022/10/03 02:23:44;;;;;;;7.28;1.65;;;19.60;96.70;;;;;;5109468;28;20730;-73
2022/10/03 02:26:59;;;;;;;5.43;1.48;;;19.60;96.70;;;;;;5083045;28;20313;-73
2022/10/03 02:29:50;;;;;;;5.85;1.63;;;19.60;96.70;;;;;;5041817;28;20083;-73
2022/10/03 02:33:06;;;;;;;9.55;1.42;;;19.60;96.70;;;;;;5083875;28;20044;-74
2022/10/03 02:35:56;;;;;;;4.63;1.13;;;19.60;96.70;;;;;;5083819;28;20040;-73
2022/10/03 02:38:49;;;;;;;3.22;0.80;;;19.60;96.70;;;;;;5077347;28;20052;-73
2022/10/03 02:41:40;;;;;;;5.38;1.13;;;19.60;96.70;;;;;;5083753;28;20134;-73
2022/10/03 02:44:48;;;;;;;7.65;1.30;;;19.60;96.70;;;;;;5079580;28;20127;-73
2022/10/03 02:47:54;;;;;;;9.60;1.17;;;19.60;96.70;;;;;;5098199;28;20053;-74
2022/10/03 02:51:05;;;;;;;6.05;1.10;;;19.70;96.70;;;;;;5082502;28;20286;-74
2022/10/03 02:54:05;;;;;;;5.00;1.20;;;19.70;96.70;;;;;;5081800;28;20733;-73
2022/10/03 02:57:02;;;;;;;7.18;1.98;;;19.60;96.70;;;;;;5079612;28;20135;-73
2022/10/03 02:59:55;;;;;;;7.10;1.33;;;19.60;96.70;;;;;;5084328;28;20097;-73
2022/10/03 03:02:48;;;;;;;4.40;1.23;;;19.70;96.70;;;;;;5089043;28;20045;-73
2022/10/03 03:05:42;;;;;;;6.32;1.50;;;19.60;96.70;;;;;;5086040;28;20056;-73
2022/10/03 03:08:49;;;;;;;7.40;1.50;;;19.60;96.70;;;;;;5079942;28;20074;-73
2022/10/03 03:11:53;;;;;;;5.57;1.42;;;19.60;96.70;;;;;;5085052;28;20044;-74
2022/10/03 03:14:56;;;;;;;5.22;1.58;;;19.60;96.70;;;;;;5085498;28;20130;-73
2022/10/03 03:17:33;;;;;;;7.57;1.60;;;19.60;96.70;;;;;;5058240;28;20097;-74
2022/10/03 03:20:38;;;;;;;4.25;1.50;;;19.60;96.70;;;;;;5086833;28;20071;-73
2022/10/03 03:23:35;;;;;;;8.77;2.45;;;19.60;96.70;;;;;;5072742;28;20405;-74
2022/10/03 03:26:29;;;;;;;4.97;1.40;;;19.50;96.70;;;;;;5087283;28;20040;-74
2022/10/03 03:29:08;;;;;;;2.53;1.13;;;19.50;96.70;;;;;;5046100;28;20134;-74
2022/10/03 03:31:45;;;;;;;7.55;1.17;;;19.50;96.70;;;;;;5080494;28;20135;-73
2022/10/03 03:34:21;;;;;;;7.78;1.15;;;19.50;96.70;;;;;;5082324;28;20040;-74
2022/10/03 03:37:05;;;;;;;4.90;1.27;;;19.50;96.70;;;;;;5068770;28;20044;-74
2022/10/03 03:39:47;;;;;;;5.80;1.20;;;19.50;96.70;;;;;;5077597;28;20048;-74
2022/10/03 03:42:44;;;;;;;5.45;1.77;;;19.50;96.70;;;;;;5075509;28;20041;-74
2022/10/03 03:45:29;;;;;;;7.65;1.33;;;19.50;96.70;;;;;;5084551;28;20049;-73
2022/10/03 03:48:20;;;;;;;4.90;1.30;;;19.50;96.70;;;;;;5086429;28;20048;-72
2022/10/03 03:51:06;;;;;;;3.97;1.13;;;19.50;96.70;;;;;;5084996;28;20036;-73
2022/10/03 03:54:18;;;;;;;7.75;1.75;;;19.50;96.70;;;;;;5083801;28;20094;-74
2022/10/03 03:57:11;;;;;;;8.15;1.80;;;19.50;96.70;;;;;;4980694;28;20867;-73
2022/10/03 03:59:50;;;;;;;8.10;1.58;;;19.40;96.70;;;;;;4989947;28;20057;-74
2022/10/03 04:02:32;;;;;;;8.07;1.45;;;19.40;96.70;;;;;;5065364;28;20173;-74
2022/10/03 04:05:13;;;;;;;4.80;1.20;;;19.40;96.70;;;;;;5085855;28;20509;-73
2022/10/03 04:07:53;;;;;;;3.78;1.05;;;19.40;96.70;;;;;;5085347;28;20040;-74
2022/10/03 04:10:37;;;;;;;2.53;1.17;;;19.40;96.70;;;;;;5079393;28;20051;-74
2022/10/03 04:13:35;;;;;;;5.78;1.63;;;19.40;96.70;;;;;;5084824;28;20052;-73
2022/10/03 04:18:56;;;;;;;4.53;1.20;;;19.30;96.70;;;;;;5085888;28;20457;-74
2022/10/03 04:19:18;;;;;;;5.18;1.60;;;19.30;96.70;;;;;;5086106;28;20809;-74
2022/10/03 04:22:10;;;;;;;5.25;1.20;;;19.30;96.70;;;;;;5083412;28;20486;-73
2022/10/03 04:25:04;;;;;;;6.57;1.70;;;19.20;96.70;;;;;;5084244;28;20067;-73
2022/10/03 04:28:09;;;;;;;4.97;1.38;;;19.30;96.70;;;;;;5080034;28;20048;-74
2022/10/03 04:30:54;;;;;;;4.50;1.33;;;19.20;96.70;;;;;;5079684;28;20502;-73
2022/10/03 04:33:31;;;;;;;5.00;1.25;;;19.20;96.70;;;;;;5085620;28;20044;-74
2022/10/03 04:36:34;;;;;;;5.32;1.40;;;19.20;96.70;;;;;;5085175;28;20036;-73
2022/10/03 04:39:09;;;;;;;5.63;1.33;;;19.20;96.70;;;;;;5053208;28;20059;-73
2022/10/03 04:41:48;;;;;;;4.88;1.27;;;19.20;96.70;;;;;;5084283;28;20051;-74
2022/10/03 04:44:32;;;;;;;11.07;1.55;;;19.30;96.70;;;;;;5084766;28;20040;-74
2022/10/03 04:47:07;;;;;;;3.65;1.27;;;19.20;96.70;;;;;;5080795;28;20040;-74
2022/10/03 04:49:41;;;;;;;7.15;1.10;;;19.30;96.70;;;;;;5083668;28;20135;-73
2022/10/03 04:52:18;;;;;;;5.15;1.42;;;19.30;96.70;;;;;;5080155;28;20077;-73
2022/10/03 04:54:56;;;;;;;6.07;1.83;;;19.20;96.70;;;;;;5082993;28;20044;-74
2022/10/03 04:57:30;;;;;;;4.85;1.33;;;19.20;96.70;;;;;;5067423;28;20044;-73
2022/10/03 05:00:13;;;;;;;6.65;1.35;;;19.20;96.70;;;;;;5084027;28;21268;-74
2022/10/03 05:02:51;;;;;;;5.57;1.40;;;19.10;96.70;;;;;;5083292;28;20414;-73
2022/10/03 05:05:47;;;;;;;4.00;1.27;;;19.10;96.70;;;;;;5083861;28;20040;-74
2022/10/03 05:08:27;;;;;;;5.18;1.60;;;19.10;96.70;;;;;;5084533;28;20032;-73
2022/10/03 05:11:17;;;;;;;4.82;2.35;;;19.10;96.70;;;;;;5081099;28;20139;-74
2022/10/03 05:14:04;;;;;;;5.65;1.80;;;19.10;96.70;;;;;;5096030;28;20371;-73
2022/10/03 05:16:41;;;;;;;6.20;1.90;;;19.10;96.70;;;;;;5085589;28;20075;-74
2022/10/03 05:19:40;;;;;;;6.43;2.03;;;19.10;96.70;;;;;;5066931;28;20044;-74
2022/10/03 05:22:19;;;;;;;8.20;2.55;;;19.10;96.70;;;;;;5074581;28;20047;-73
2022/10/03 05:24:55;;;;;;;6.38;1.77;;;19.10;96.70;;;;;;5083240;28;20066;-73
2022/10/03 05:27:34;;;;;;;9.30;2.63;;;19.00;96.70;;;;;;5078868;28;20131;-74
2022/10/03 05:30:06;;;;;;;9.27;2.42;;;19.00;96.70;;;;;;5096458;28;20052;-74
2022/10/03 05:32:40;;;;;;;7.60;2.35;;;19.00;96.70;;;;;;5084447;28;20504;-74
2022/10/03 05:35:49;;;;;;;8.05;2.13;;;19.00;96.70;;;;;;5081851;28;20102;-73
2022/10/03 05:38:38;;;;;;;5.65;2.05;;;19.10;96.70;;;;;;5055719;28;20052;-73
2022/10/03 05:41:16;;;;;;;4.75;1.70;;;19.10;96.70;;;;;;5082869;28;20551;-73
2022/10/03 05:44:00;;;;;;;6.90;1.85;;;19.10;96.70;;;;;;5084450;28;20104;-73
2022/10/03 05:46:44;;;;;;;7.03;1.77;;;19.00;96.70;;;;;;5076609;28;20040;-73
2022/10/03 05:49:36;;;;;;;7.70;2.00;;;19.00;96.70;;;;;;5084988;28;20490;-73
2022/10/03 05:52:31;;;;;;;6.30;1.52;;;19.00;96.70;;;;;;5079981;28;20075;-74
2022/10/03 05:55:11;;;;;;;6.68;1.80;;;19.00;96.70;;;;;;5084634;28;20044;-74
2022/10/03 05:58:01;;;;;;;5.78;1.38;;;19.00;96.70;;;;;;5081715;28;20635;-74
2022/10/03 06:00:44;;;;;;;6.43;1.77;;;19.10;96.70;;;;;;5077446;28;20048;-73
2022/10/03 06:03:49;;;;;;;5.63;1.92;;;19.10;96.70;;;;;;5083508;28;20055;-74
2022/10/03 06:06:23;;;;;;;5.97;1.73;;;19.10;96.70;;;;;;5083985;28;20042;-74
2022/10/03 06:09:15;;;;;;;8.23;1.90;;;19.00;96.70;;;;;;5081978;28;20215;-74
2022/10/03 06:12:02;;;;;;;7.82;1.60;;;19.00;96.70;;;;;;5057847;28;20090;-74
2022/10/03 06:14:48;;;;;;;;;;;19.10;96.70;;;;;;5079973;28;20105;-75
2022/10/03 06:17:40;;;;;;;8.40;1.60;;;19.10;96.70;;;;;;5115418;27;20031;-75
2022/10/03 06:20:35;;;;;;;8.95;2.03;;;19.10;96.70;;;;;;5080783;28;20040;-75
2022/10/03 06:23:30;;;;;;;5.97;1.92;;;19.10;96.70;;;;;;5078877;28;20044;-74
2022/10/03 06:26:35;;;;;;;8.52;2.03;;;19.10;96.70;;;;;;5081497;28;20040;-75
2022/10/03 06:29:41;;;;;;;7.38;2.00;;;19.10;96.70;;;;;;5065928;28;20051;-75
2022/10/03 06:32:51;;;;;;;6.25;1.63;;;19.20;96.70;;;;;;5084339;28;20067;-74
2022/10/03 06:35:46;;;;;;;9.35;2.13;;;19.20;96.70;;;;;;5028233;28;20608;-74
2022/10/03 06:38:47;;;;;;;6.28;2.10;;;19.30;96.70;;;;;;5083366;28;20052;-75
2022/10/03 06:42:06;;;;;;;6.75;2.83;;;19.30;96.70;;;;;;5048864;28;20066;-74
2022/10/03 06:45:01;;;;;;;10.38;2.50;;;19.30;96.70;;;;;;5087404;28;20660;-74
2022/10/03 06:47:55;;;;;;;8.05;2.28;;;19.40;96.70;;;;;;5074680;28;20066;-74
2022/10/03 06:50:41;;;;;;;5.35;2.05;;;19.40;96.70;;;;;;5084641;28;20135;-74
2022/10/03 06:53:38;;;;;;;10.00;2.40;;;19.40;96.70;;;;;;5085079;28;20074;-74
2022/10/03 06:56:41;;;;;;;8.15;2.85;;;19.50;96.70;;;;;;5080666;28;20076;-73
2022/10/03 06:59:51;;;;;;;11.60;4.40;;;19.60;96.70;;;;;;5086283;28;20428;-74
2022/10/03 07:03:03;;;;;;;10.40;3.92;;;19.70;96.70;;;;;;5060985;28;20493;-75
2022/10/03 07:06:12;;;;;;;6.97;3.50;;;19.60;96.70;;;;;;5087814;28;20048;-74
2022/10/03 07:09:12;;;;;;;11.43;4.20;;;19.70;96.70;;;;;;5082735;28;20583;-74
2022/10/03 07:12:16;;;;;;;11.77;4.25;;;19.80;96.70;;;;;;5087083;28;20119;-74
2022/10/03 07:15:13;;;;;;;12.95;4.32;;;19.80;96.70;;;;;;5081965;28;20052;-75
2022/10/03 07:18:11;;;;;;;16.38;4.35;;;19.80;96.70;;;;;;5070676;28;20055;-74
2022/10/03 07:21:18;;;;;;;8.23;4.05;;;19.90;96.70;;;;;;5085759;28;20048;-75
2022/10/03 07:24:20;;;;;;;12.80;4.78;;;19.90;96.70;;;;;;5082888;28;20801;-74
2022/10/03 07:27:10;;;;;;;12.82;4.15;;;20.00;96.70;;;;;;5084324;28;20052;-74
2022/10/03 07:30:02;;;;;;;16.42;4.82;;;20.00;96.70;;;;;;5102229;28;20071;-74
2022/10/03 07:33:12;;;;;;;10.25;3.53;;;20.00;96.70;;;;;;5083003;28;20115;-74
2022/10/03 07:39:00;;;;;;;10.27;3.20;;;20.10;96.70;;;;;;5084901;28;20485;-74
2022/10/03 07:42:11;;;;;;;9.63;3.53;;;20.20;96.70;;;;;;5079201;28;20052;-74
2022/10/03 07:45:02;;;;;;;7.85;2.67;;;20.30;96.70;;;;;;5080971;28;20156;-74
2022/10/03 07:48:21;;;;;;;9.55;2.30;;;20.40;96.70;;;;;;5085976;28;20036;-75
2022/10/03 07:50:58;;;;;;;8.32;2.45;;;20.40;96.70;;;;;;5012095;28;20064;-74
2022/10/03 07:54:01;;;;;;;7.53;2.10;;;20.50;96.70;;;;;;5084498;28;20048;-74
2022/10/03 07:57:02;;;;;;;8.30;2.10;;;20.50;96.70;;;;;;5083107;28;20071;-74
2022/10/03 08:00:00;;;;;;;9.40;2.17;;;20.60;96.70;;;;;;5079614;28;20048;-74
2022/10/03 08:03:11;;;;;;;5.60;1.60;;;20.60;96.70;;;;;;5085463;28;20180;-74
2022/10/03 08:06:13;;;;;;;9.95;2.05;;;20.70;96.70;;;;;;5083206;28;20052;-75
2022/10/03 08:09:16;;;;;;;8.10;1.58;;;20.80;96.70;;;;;;5054029;28;20071;-74
2022/10/03 08:12:22;;;;;;;6.03;1.50;;;20.80;96.70;;;;;;5096373;28;20067;-74
2022/10/03 08:15:10;;;;;;;7.28;1.88;;;20.90;96.70;;;;;;5073394;28;20048;-73
2022/10/03 08:18:15;;;;;;;8.77;2.10;;;21.00;96.70;;;;;;5084256;28;20068;-73
2022/10/03 08:20:57;;;;;;;8.52;1.90;;;21.10;96.70;;;;;;5076789;28;20044;-73
2022/10/03 08:23:51;;;;;;;7.35;1.70;;;21.10;96.70;;;;;;5094805;28;20072;-72
2022/10/03 08:26:29;;;;;;;10.32;2.17;;;21.20;96.70;;;;;;5086074;28;20462;-72
2022/10/03 08:29:25;;;;;;;8.93;1.65;;;21.30;96.70;;;;;;5086312;28;20097;-72
2022/10/03 08:32:27;;;;;;;13.57;2.17;;;21.30;96.70;;;;;;5072990;28;20056;-73
2022/10/03 08:35:24;;;;;;;12.80;3.25;;;21.30;96.70;;;;;;5080048;28;20040;-72
2022/10/03 08:38:35;;;;;;;9.10;2.03;;;21.40;96.70;;;;;;5081272;28;20063;-74
2022/10/03 08:41:55;;;;;;;11.32;2.25;;;21.60;96.70;;;;;;5066748;28;20051;-73
2022/10/03 08:44:48;;;;;;;13.70;3.50;;;21.70;96.70;;;;;;5006205;28;20110;-74
2022/10/03 08:47:44;;;;;;;9.07;2.45;;;21.80;96.70;;;;;;5008819;28;20050;-73
2022/10/03 08:50:40;;;;;;;12.40;2.97;;;21.80;96.70;;;;;;5078533;28;20230;-73
2022/10/03 08:53:46;;;;;;;10.43;2.60;;;21.80;96.70;;;;;;5112635;27;20047;-74
2022/10/03 08:56:16;;;;;;;14.00;3.45;;;21.80;96.70;;;;;;5077559;28;20453;-73
2022/10/03 08:59:09;;;;;;;9.13;2.58;;;21.90;96.70;;;;;;5083465;28;20593;-74
2022/10/03 09:02:28;;;;;;;9.18;1.88;;;22.00;96.70;;;;;;5083225;28;20461;-74
2022/10/03 09:05:35;;;;;;;13.88;2.90;;;22.00;96.70;;;;;;4996989;28;20045;-73
2022/10/03 09:08:38;;;;;;;7.88;2.55;;;22.10;96.70;;;;;;4991619;28;20065;-73
2022/10/03 09:11:36;;;;;;;9.80;1.90;;;22.10;96.70;;;;;;5085186;28;20098;-74
2022/10/03 09:14:39;;;;;;;12.63;2.60;;;22.30;96.70;;;;;;5084033;28;20037;-74
2022/10/03 09:17:43;;;;;;;13.82;3.08;;;22.30;96.70;;;;;;5047663;28;20508;-73
2022/10/03 09:20:48;;;;;;;9.80;2.55;;;22.30;96.70;;;;;;5058409;28;20055;-74
2022/10/03 09:23:41;;;;;;;11.27;2.72;;;22.40;96.70;;;;;;5078228;28;20125;-73
2022/10/03 09:26:47;;;;;;;7.10;2.33;;;22.60;96.70;;;;;;5093766;28;20554;-74
2022/10/03 09:29:37;;;;;;;12.02;2.33;;;22.80;96.70;;;;;;5080804;28;20159;-73
2022/10/03 09:32:47;;;;;;;8.02;1.92;;;22.90;96.70;;;;;;5082509;28;20032;-74
2022/10/03 09:35:52;;;;;;;8.45;1.98;;;23.00;96.70;;;;;;5024626;28;20580;-74
2022/10/03 09:39:00;;;;;;;5.95;1.55;;;23.20;96.70;;;;;;5080561;28;20089;-73
2022/10/03 09:42:06;;;;;;;7.68;2.08;;;23.20;96.70;;;;;;5078043;28;20498;-73
2022/10/03 09:45:08;;;;;;;6.40;2.05;;;23.20;96.70;;;;;;5078802;28;20134;-73
2022/10/03 09:48:07;;;;;;;11.50;2.60;;;23.30;96.70;;;;;;5095179;28;20047;-73
2022/10/03 09:51:08;;;;;;;7.65;2.00;;;23.50;96.70;;;;;;5092904;28;20044;-73
2022/10/03 09:54:17;;;;;;;10.30;2.55;;;23.70;96.70;;;;;;5091722;28;20048;-73
2022/10/03 09:57:37;;;;;;;7.32;2.30;;;23.80;96.70;;;;;;5082154;28;20094;-73
2022/10/03 10:00:21;;;;;;;8.50;2.03;;;23.90;96.70;;;;;;5083251;28;20460;-72
2022/10/03 10:03:15;;;;;;;7.03;1.95;;;23.90;96.70;;;;;;5082734;28;20055;-73
2022/10/03 10:06:10;;;;;;;8.82;2.38;;;23.90;96.70;;;;;;5084780;28;20075;-73
2022/10/03 10:09:13;;;;;;;8.35;2.20;;;24.00;96.70;;;;;;5073544;28;20048;-73
2022/10/03 10:12:17;;;;;;;4.78;1.92;;;23.90;96.70;;;;;;5080739;28;20509;-73
2022/10/03 10:15:25;;;;;;;6.43;2.00;;;24.10;96.70;;;;;;5082297;28;20052;-74
2022/10/03 10:18:25;;;;;;;11.05;2.35;;;24.30;96.70;;;;;;5082989;28;20138;-74
2022/10/03 10:21:36;;;;;;;9.77;2.28;;;24.30;96.70;;;;;;5045853;28;20605;-73
2022/10/03 10:24:47;;;;;;;7.65;2.20;;;24.50;96.70;;;;;;5054868;28;20639;-74
2022/10/03 10:27:47;;;;;;;7.20;2.55;;;24.50;96.70;;;;;;5082245;28;20493;-74
2022/10/03 10:30:25;;;;;;;6.70;1.83;;;24.20;96.70;;;;;;5073961;28;20129;-74
2022/10/03 10:33:34;;;;;;;8.50;2.25;;;24.00;96.70;;;;;;5082127;28;20048;-73
2022/10/03 10:36:35;;;;;;;6.25;2.28;;;23.90;96.70;;;;;;5082389;28;20068;-74
2022/10/03 10:39:34;;;;;;;7.07;1.75;;;23.80;96.70;;;;;;5030665;28;20105;-74
2022/10/03 10:43:02;;;;;;;6.28;1.73;;;24.00;96.70;;;;;;5089117;28;20246;-73
2022/10/03 10:45:58;;;;;;;5.47;1.60;;;24.00;96.70;;;;;;5079181;28;20040;-74
2022/10/03 10:49:10;;;;;;;5.07;1.40;;;24.20;96.70;;;;;;5083437;28;20047;-74
2022/10/03 10:52:20;;;;;;;5.63;1.63;;;24.40;96.70;;;;;;5080379;28;20238;-74
2022/10/03 10:55:44;;;;;;;6.15;1.40;;;24.80;96.70;;;;;;5091383;28;20048;-73
2022/10/03 10:59:00;;;;;;;5.57;1.58;;;24.90;96.70;;;;;;5080082;28;20716;-73
2022/10/03 11:02:13;;;;;;;5.97;1.92;;;24.90;96.70;;;;;;5046208;28;20101;-74
2022/10/03 11:05:21;;;;;;;7.00;2.00;;;24.90;96.70;;;;;;5080856;28;20055;-74
2022/10/03 11:08:33;;;;;;;9.07;1.67;;;24.90;96.70;;;;;;5078607;28;20092;-74
2022/10/03 11:11:43;;;;;;;6.78;1.65;;;25.10;96.70;;;;;;5081951;28;20044;-74
2022/10/03 11:14:50;;;;;;;5.43;1.70;;;25.00;96.70;;;;;;5058494;28;20056;-74
2022/10/03 11:18:07;;;;;;;7.97;1.92;;;25.10;96.70;;;;;;5083503;28;20074;-74
2022/10/03 11:21:26;;;;;;;5.85;1.90;;;25.30;96.70;;;;;;4956739;28;20090;-75
2022/10/03 11:24:30;;;;;;;6.25;1.80;;;25.70;96.70;;;;;;5006595;28;20061;-73
2022/10/03 11:27:47;;;;;;;8.32;2.20;;;25.50;96.70;;;;;;5003203;28;20061;-73
2022/10/03 11:30:53;;;;;;;7.40;2.22;;;25.40;96.70;;;;;;4969849;28;20066;-74
2022/10/03 11:33:58;;;;;;;7.85;2.03;;;25.60;96.70;;;;;;4975294;28;20142;-73
2022/10/03 11:37:01;;;;;;;7.40;1.58;;;26.00;96.70;;;;;;5007035;28;20053;-74
2022/10/03 11:39:40;;;;;;;8.60;1.73;;;26.00;96.70;;;;;;5005274;28;20108;-73
2022/10/03 11:42:18;;;;;;;8.93;2.03;;;26.10;96.70;;;;;;4998699;28;20061;-74
2022/10/03 11:44:52;;;;;;;3.80;1.60;;;26.00;96.70;;;;;;5004047;28;20104;-72
2022/10/03 11:47:54;;;;;;;8.23;2.15;;;26.10;96.70;;;;;;5004603;28;20057;-73
2022/10/03 11:50:38;;;;;;;9.68;2.00;;;26.20;96.70;;;;;;5011472;28;20056;-73
2022/10/03 11:53:17;;;;;;;5.88;1.70;;;26.30;96.70;;;;;;5080514;28;20071;-75
2022/10/03 11:55:50;;;;;;;5.70;1.67;;;26.40;96.70;;;;;;5086161;28;20468;-73
2022/10/03 11:58:32;;;;;;;6.10;1.73;;;26.50;96.70;;;;;;5085507;28;20047;-73
2022/10/03 12:01:20;;;;;;;5.97;1.42;;;26.80;96.70;;;;;;5078485;28;20074;-74
2022/10/03 12:03:55;;;;;;;5.13;1.90;;;26.70;96.70;;;;;;5084150;28;20062;-73
2022/10/03 12:10:13;;;;;;;7.50;1.73;;;26.90;96.70;;;;;;5052232;28;20648;-73
2022/10/03 12:12:44;;;;;;;6.60;1.63;;;26.80;96.70;;;;;;5074198;28;20426;-73
2022/10/03 12:15:26;;;;;;;4.60;1.40;;;27.00;96.70;;;;;;5085115;28;20060;-75
2022/10/03 12:18:04;;;;;;;7.28;1.88;;;27.10;96.70;;;;;;5084717;28;20501;-73
2022/10/03 12:20:57;;;;;;;10.13;2.25;;;27.20;96.70;;;;;;5083567;28;20090;-74
2022/10/03 12:23:42;;;;;;;5.57;2.00;;;27.20;96.70;;;;;;5083052;28;20054;-74
2022/10/03 12:26:16;;;;;;;6.45;1.92;;;27.20;96.70;;;;;;5084038;28;20040;-74
2022/10/03 12:28:50;;;;;;;6.05;1.67;;;27.20;96.70;;;;;;5085469;28;20039;-74
2022/10/03 12:31:25;;;;;;;6.32;1.52;;;27.30;96.70;;;;;;5083912;28;20134;-75
2022/10/03 12:34:02;;;;;;;5.63;1.77;;;27.50;96.70;;;;;;5084216;28;20452;-73
2022/10/03 12:36:40;;;;;;;3.80;1.35;;;27.50;96.70;;;;;;5081651;28;20052;-73
2022/10/03 12:39:23;;;;;;;11.00;2.22;;;27.50;96.70;;;;;;5084962;28;20051;-73
2022/10/03 12:42:15;;;;;;;8.90;1.77;;;27.40;96.70;;;;;;5085470;28;20040;-74
2022/10/03 12:44:51;;;;;;;7.70;1.80;;;27.50;96.70;;;;;;5083531;28;20051;-73
2022/10/03 12:47:28;;;;;;;8.05;2.05;;;27.60;96.70;;;;;;5082715;28;20044;-72
2022/10/03 12:50:33;;;;;;;4.93;1.60;;;27.70;96.70;;;;;;5078444;28;20040;-72
2022/10/03 12:53:30;;;;;;;6.05;1.83;;;28.00;96.70;;;;;;5098438;28;20043;-73
2022/10/03 12:56:01;;;;;;;;;;;28.00;96.70;;;;;;5086162;28;20044;-74
2022/10/03 12:58:51;;;;;;;7.28;1.63;;;28.00;96.70;;;;;;5084000;28;19923;-72
2022/10/03 13:01:27;;;;;;;5.78;1.67;;;28.30;96.70;;;;;;5084539;28;20109;-72
2022/10/03 13:03:59;;;;;;;3.50;1.35;;;28.40;96.70;;;;;;5077293;28;20578;-73
2022/10/03 13:06:44;;;;;;;6.85;1.55;;;28.40;96.70;;;;;;5084474;28;20513;-73
2022/10/03 13:09:55;;;;;;;6.00;1.80;;;28.40;96.70;;;;;;5082130;28;20093;-73
2022/10/03 13:12:35;;;;;;;4.03;1.67;;;28.50;96.70;;;;;;5094255;28;20728;-74
2022/10/03 13:15:43;;;;;;;6.32;2.03;;;28.40;96.70;;;;;;5081801;28;20048;-74
2022/10/03 13:18:26;;;;;;;6.78;1.60;;;28.40;96.70;;;;;;5079771;28;20420;-74
2022/10/03 13:21:03;;;;;;;5.50;1.30;;;28.30;96.70;;;;;;5083562;28;20048;-74
2022/10/03 13:23:53;;;;;;;6.22;1.63;;;28.00;96.70;;;;;;5095128;28;20061;-74
2022/10/03 13:26:27;;;;;;;5.38;1.40;;;27.80;96.70;;;;;;5085642;28;20036;-74
2022/10/03 13:29:33;;;;;;;5.90;1.50;;;27.60;96.70;;;;;;5077881;28;20047;-74
2022/10/03 13:32:21;;;;;;;9.25;2.40;;;27.50;96.70;;;;;;5042057;28;20635;-75
2022/10/03 13:38:39;;;;;;;4.10;1.40;;;27.50;96.70;;;;;;5023682;28;20056;-74
2022/10/03 13:41:23;;;;;;;7.18;2.05;;;27.60;96.70;;;;;;5022444;28;20135;-75
2022/10/03 13:43:58;;;;;;;4.90;1.23;;;27.70;96.70;;;;;;5020193;28;20081;-75
2022/10/03 13:46:32;;;;;;;5.95;1.48;;;27.70;96.70;;;;;;5041230;28;20136;-75
2022/10/03 13:49:09;;;;;;;6.05;1.17;;;27.80;96.70;;;;;;5040872;28;20041;-75
2022/10/03 13:51:52;;;;;;;4.30;1.30;;;27.90;96.70;;;;;;5040113;28;20608;-75
2022/10/03 13:54:38;;;;;;;6.70;1.52;;;28.00;96.70;;;;;;5037401;28;20057;-75
2022/10/03 13:57:14;;;;;;;2.53;1.40;;;28.10;96.70;;;;;;5040388;28;20061;-75
2022/10/03 14:00:07;;;;;;;6.13;1.60;;;28.20;96.70;;;;;;5016821;28;20514;-73
2022/10/03 14:03:15;;;;;;;4.55;1.63;;;28.30;96.70;;;;;;5044925;28;20059;-73
2022/10/03 14:06:15;;;;;;;3.55;1.20;;;28.40;96.70;;;;;;5053068;28;20052;-74
2022/10/03 14:09:17;;;;;;;2.42;1.30;;;28.50;96.70;;;;;;5083247;28;20028;-73
2022/10/03 14:11:52;;;;;;;3.15;1.30;;;28.80;96.70;;;;;;5082245;28;20091;-74
2022/10/03 14:14:59;;;;;;;4.95;1.50;;;28.90;96.70;;;;;;5078835;28;20038;-74
2022/10/03 14:17:34;;;;;;;4.70;1.65;;;29.10;96.70;;;;;;5064789;28;20059;-73
2022/10/03 14:20:17;;;;;;;4.10;1.45;;;29.30;96.70;;;;;;5077952;28;20601;-72
2022/10/03 14:23:04;;;;;;;4.15;1.38;;;29.40;96.70;;;;;;5076872;28;20484;-73
2022/10/03 14:25:39;;;;;;;4.78;1.55;;;29.50;96.70;;;;;;5082774;28;20059;-73
2022/10/03 14:28:15;;;;;;;7.70;1.77;;;29.70;96.70;;;;;;5082630;28;20036;-73
2022/10/03 14:30:53;;;;;;;4.55;1.58;;;29.80;96.70;;;;;;5083088;28;20298;-74
2022/10/03 14:33:42;;;;;;;4.10;1.35;;;30.20;96.70;;;;;;5082433;28;20040;-74
2022/10/03 14:36:35;;;;;;;6.90;1.85;;;30.40;96.70;;;;;;5082369;28;20513;-73
2022/10/03 14:39:31;;;;;;;2.47;1.23;;;30.70;96.70;;;;;;5082305;28;20060;-73
2022/10/03 14:42:36;;;;;;;5.17;1.53;;;31.30;96.70;;;;;;5074269;28;20435;-73
2022/10/03 14:45:08;;;;;;;2.90;1.30;;;31.50;96.70;;;;;;5095768;28;20302;-73
2022/10/03 14:47:39;;;;;;;2.95;1.35;;;31.80;96.70;;;;;;5061547;28;20509;-72
2022/10/03 14:50:16;;;;;;;5.22;1.60;;;32.10;96.70;;;;;;5082597;28;20497;-73
2022/10/03 14:52:48;;;;;;;4.03;1.70;;;32.50;96.70;;;;;;5064041;28;20143;-73
2022/10/03 14:55:19;;;;;;;7.78;2.00;;;32.70;96.70;;;;;;5082075;28;20440;-72
2022/10/03 14:57:53;;;;;;;5.38;1.45;;;32.90;96.70;;;;;;5086668;28;20058;-73
2022/10/03 15:00:42;;;;;;;4.45;1.42;;;33.10;96.70;;;;;;5071132;28;20447;-73
2022/10/03 15:03:32;;;;;;;4.22;1.75;;;33.30;96.70;;;;;;5086025;28;20135;-75